Terminal Aerodrome Forecast
Issued by NWS

Home | Current Version | Previous Version | Text Only | Print | Product List | Glossary On
Versions: 1 2 3 4 5 6 7 8 9 10 11 12
629
FTUS46 KPDT 090539
TAFDLS
TAF
KDLS 090539Z 0906/1006 VRB04KT P6SM FEW250
     FM091200 VRB03KT P6SM SCT020
      TEMPO 0913/0917 5SM BR SCT010
     FM091900 08008KT P6SM SCT250
     FM100300 VRB04KT P6SM SCT250=

USA.gov is the U.S. government's official web portal to all federal, state and local government web resources and services.